Miami, FL

3:36 PM EDT on August 04, 2015 (GMT -0400)
DV Floral Group | | Change Station
CLOSE
Current Station
Personal Weather Station
Location: Miami, FL
Elevation: 26 ft
Nearby Weather Stations

Elev 26 ft 25.79 °N, 80.35 °W | Updated 2 minutes ago

Scattered Clouds
Scattered Clouds
88.9 °F
Feels Like 98 °F
N
14.0
Wind Variable Wind from SE
Gusts 16.0 mph

Today
High -- | Low -- °F
--% Chance of Precip.
Yesterday
High -- | Low -- °F
Precip. -- in
6:48 AM 8:05 PM
Waning Gibbous, 75% visible
Pressure 30.05 in
Visibility 10.0 miles
Clouds Few 4200 ft
Scattered Clouds 25000 ft
Heat Index 98 °F
Dew Point 74 °F
Humidity 62%
Rainfall 0.00 in
Snow Depth Not available.
UV 11 out of 12
Pollen 3.00 out of 12
Air Quality Not available.
Flu Activity Not available.
METAR KMIA 041853Z 12010KT 10SM FEW042 SCT250 33/21 A3005 RMK AO2 SLP176 CB DSNT SW-NW-N TCU DSNT SE-S T03280206

More Conditions Fewer Conditions

Pressure 30.05 in
Visibility 10.0 miles
Clouds Few 4200 ft
Scattered Clouds 25000 ft
Heat Index 98 °F
Dew Point 74 °F
Humidity 62%
Rainfall 0.00 in
Snow Depth Not available.
UV 11 out of 12
Pollen 3.00 out of 12
Air Quality Not available.
Flu Activity Not available.
METAR KMIA 041853Z 12010KT 10SM FEW042 SCT250 33/21 A3005 RMK AO2 SLP176 CB DSNT SW-NW-N TCU DSNT SE-S T03280206

More Conditions Fewer Conditions

Nowcast | as of 2:27 PM EDT on August 4, 2015

Showers and isolated thunderstorms will affect the southern half of South Florida...mainly across the interior regions and inland Collier County. These showers will produce brief heavy downpours...gusty winds to near 25 mph and occasional lightning strikes with the heaviest showers.

×

10-Day Weather Forecast

×

Almanac

Astronomy

Aug. 04, 2015 Rise Set
Actual Time
Civil Twilight
Nautical Twilight
Astronomical Twilight
Moon
Length of Visible Light
Length of Day
Tomorrow will be .
, % of the Moon is Illuminated

Today's Extremes

State Highs State Lows

Community

WunderPhotos

Upload Photos

1,843,954 photos uploaded!

WunderBlogs® & News

Nearby

Air Quality

  Air Quality AQ Index Pollutant
Not available.

Snow Depth

Station Depth Elevation

Earthquake Activity

City Distance Mag. Time & Date
Minimum magnitude displayed is 2.5.

Coastal Water Temperatures

Place Temperature

Stations

Nearby Weather Stations

Station Location Temp. Windchill Dew Point Humidity Wind Precip. Elev Updated Type